This is the latest recevied weather packets stored in our database for station/object LZ2SLL-13. If no packets are shown the sender has not sent any weather packets the latest 10 day(s).
| Time | Temp. | Humidity | Pressure | Rain* | Wind** | Luminosity | Snow |
|---|---|---|---|---|---|---|---|
| 1777881458 | 15° C | 47% | - | 0 mm | - | 379 W/m² | - |
| 1777881158 | 15° C | 47% | - | 0 mm | - | 491 W/m² | - |
| 1777880255 | 13.89° C | 49% | - | 0 mm | - | 375 W/m² | - |
| 1777879955 | 14.44° C | 50% | - | 0 mm | - | 393 W/m² | - |
| 1777879654 | 13.89° C | 50% | - | 0 mm | - | 360 W/m² | - |
| 1777879353 | 13.89° C | 50% | - | 0 mm | - | 382 W/m² | - |
| 1777879053 | 13.89° C | 51% | - | 0 mm | - | 379 W/m² | - |
| 1777878752 | 13.89° C | 50% | - | 0 mm | - | 384 W/m² | - |
| 1777878451 | 13.33° C | 49% | - | 0 mm | - | 398 W/m² | - |
| 1777878150 | 13.33° C | 50% | - | 0 mm | - | 388 W/m² | - |
| 1777877849 | 13.33° C | 50% | - | 0 mm | - | 376 W/m² | - |
| 1777877549 | 13.33° C | 50% | - | 0 mm | - | 437 W/m² | - |
| 1777877248 | 13.33° C | 50% | - | 0 mm | - | 477 W/m² | - |
| 1777876947 | 12.78° C | 51% | - | 0 mm | - | 468 W/m² | - |
| 1777876646 | 12.78° C | 51% | - | 0 mm | - | 441 W/m² | - |
| 1777876345 | 12.78° C | 52% | - | 0 mm | - | 432 W/m² | - |
| 1777876045 | 12.22° C | 52% | - | 0 mm | - | 349 W/m² | - |
| 1777875744 | 11.67° C | 54% | - | 0 mm | - | 286 W/m² | - |
| 1777875444 | 11.67° C | 53% | - | 0 mm | - | 273 W/m² | - |
| 1777875143 | 11.67° C | 54% | - | 0 mm | - | 317 W/m² | - |
| 1777874842 | 11.67° C | 54% | - | 0 mm | - | 308 W/m² | - |
| 1777874541 | 11.11° C | 54% | - | 0 mm | - | 307 W/m² | - |
| 1777874240 | 10.56° C | 54% | - | 0 mm | - | 320 W/m² | - |
| 1777873940 | 10.56° C | 55% | - | 0 mm | - | 347 W/m² | - |
| 1777873639 | 10.56° C | 56% | - | 0 mm | - | 317 W/m² | - |
* Rain latest hour (hover to see other rain measurements)
** Current wind speed in m/s (hover to see current wind gust speed)